createdAt,value
2022-12-18T00:01:37.091Z,102168.36
2022-12-18T00:04:21.781Z,102172.63
2022-12-18T00:06:51.030Z,102177.12
2022-12-18T00:09:20.318Z,102183.13
2022-12-18T00:11:49.472Z,102172.85
2022-12-18T00:14:19.998Z,102193.55
2022-12-18T00:16:48.633Z,102197.51
2022-12-18T00:19:18.287Z,102201.13
2022-12-18T00:21:46.905Z,102208.51
2022-12-18T00:24:15.494Z,102218.48
2022-12-18T00:26:45.375Z,102226.09
2022-12-18T00:29:15.383Z,102233.10
2022-12-18T00:31:45.712Z,102232.98
2022-12-18T00:34:14.903Z,102242.63
2022-12-18T00:36:43.414Z,102244.09
2022-12-18T00:39:12.274Z,102245.31
2022-12-18T00:41:59.073Z,102245.54
2022-12-18T00:44:27.513Z,102250.51
2022-12-18T00:46:56.042Z,102249.36
2022-12-18T00:49:24.534Z,102246.66
2022-12-18T00:51:55.833Z,102254.37
2022-12-18T00:54:24.646Z,102256.64
2022-12-18T00:56:53.370Z,102256.59
2022-12-18T00:59:22.180Z,102258.08
2022-12-18T01:01:52.304Z,102255.79
2022-12-18T01:04:26.060Z,102259.86
2022-12-18T01:06:54.653Z,102257.98
2022-12-18T01:09:24.045Z,102258.96
2022-12-18T01:11:54.010Z,102258.19
2022-12-18T01:14:25.113Z,102267.68
2022-12-18T01:16:55.285Z,102267.46
2022-12-18T01:19:25.288Z,102269.75
2022-12-18T01:21:53.951Z,102270.70
2022-12-18T01:24:22.549Z,102268.23
2022-12-18T01:26:51.132Z,102268.98
2022-12-18T01:29:19.719Z,102276.38
2022-12-18T01:31:48.242Z,102279.81
2022-12-18T01:34:17.498Z,102289.61
2022-12-18T01:36:46.036Z,102281.55
2022-12-18T01:39:16.363Z,102288.67
2022-12-18T01:42:02.933Z,102288.17
2022-12-18T01:45:04.707Z,102284.65
2022-12-18T01:47:49.585Z,102282.81
2022-12-18T01:50:41.888Z,102284.90
2022-12-18T01:53:17.481Z,102278.47
2022-12-18T01:55:58.986Z,102285.67
2022-12-18T01:58:58.896Z,102287.23
2022-12-18T02:01:27.895Z,102294.58
2022-12-18T02:03:56.606Z,102289.92
2022-12-18T02:06:41.608Z,102298.05
2022-12-18T02:09:16.318Z,102298.06
2022-12-18T02:12:16.479Z,102305.59
2022-12-18T02:15:01.165Z,102312.42
2022-12-18T02:17:38.594Z,102314.14
2022-12-18T02:20:31.824Z,102317.75
2022-12-18T02:23:32.367Z,102323.05
2022-12-18T02:26:32.847Z,102323.39
2022-12-18T02:29:13.456Z,102330.08
2022-12-18T02:31:52.070Z,102340.53
2022-12-18T02:34:23.566Z,102344.67
2022-12-18T02:36:52.642Z,102351.00
2022-12-18T02:39:23.318Z,102357.16
2022-12-18T02:42:00.767Z,102359.58
2022-12-18T02:44:29.512Z,102359.58
2022-12-18T02:46:58.074Z,102358.75
2022-12-18T02:49:41.929Z,102363.05
2022-12-18T02:52:47.738Z,102365.48
2022-12-18T02:55:53.383Z,102373.83
2022-12-18T02:58:41.776Z,102378.61
2022-12-18T03:01:27.875Z,102382.71
2022-12-18T03:03:59.059Z,102379.12
2022-12-18T03:06:37.164Z,102383.05
2022-12-18T03:09:11.153Z,102384.08
2022-12-18T03:12:02.518Z,102390.04
2022-12-18T03:14:35.833Z,102395.66
2022-12-18T03:17:07.248Z,102400.27
2022-12-18T03:19:36.603Z,102400.42
2022-12-18T03:22:06.198Z,102398.73
2022-12-18T03:24:43.116Z,102405.39
2022-12-18T03:27:16.844Z,102411.52
2022-12-18T03:30:10.118Z,102414.98
2022-12-18T03:33:00.001Z,102414.49
2022-12-18T03:35:34.886Z,102415.50
2022-12-18T03:38:03.694Z,102422.16
2022-12-18T03:40:41.400Z,102426.81
2022-12-18T03:43:34.566Z,102430.40
2022-12-18T03:46:20.040Z,102438.23
2022-12-18T03:49:08.354Z,102442.88
2022-12-18T03:51:50.610Z,102447.88
2022-12-18T03:54:19.646Z,102455.60
2022-12-18T03:57:02.634Z,102464.48
2022-12-18T03:59:36.176Z,102468.73
2022-12-18T04:02:06.525Z,102476.73
2022-12-18T04:04:37.411Z,102481.67
2022-12-18T04:07:07.446Z,102487.98
2022-12-18T04:09:37.619Z,102490.67
2022-12-18T04:12:06.847Z,102494.41
2022-12-18T04:14:36.970Z,102496.34
2022-12-18T04:17:07.009Z,102505.55
2022-12-18T04:19:36.163Z,102516.77
2022-12-18T04:22:04.968Z,102519.48
2022-12-18T04:24:38.795Z,102519.65
2022-12-18T04:27:16.185Z,102523.58
2022-12-18T04:29:50.008Z,102524.08
2022-12-18T04:32:20.612Z,102528.16
2022-12-18T04:34:49.331Z,102529.40
2022-12-18T04:37:18.824Z,102536.23
2022-12-18T04:39:49.422Z,102544.73
2022-12-18T04:42:24.380Z,102546.93
2022-12-18T04:44:56.760Z,102545.91
2022-12-18T04:47:25.268Z,102550.52
2022-12-18T04:49:53.816Z,102550.05
2022-12-18T04:52:25.572Z,102557.00
2022-12-18T04:54:54.699Z,102563.31
2022-12-18T04:57:23.538Z,102566.58
2022-12-18T04:59:53.035Z,102571.39
2022-12-18T05:02:22.727Z,102573.63
2022-12-18T05:04:53.965Z,102586.25
2022-12-18T05:07:26.163Z,102594.77
2022-12-18T05:09:57.732Z,102598.71
2022-12-18T05:12:31.135Z,102600.05
2022-12-18T05:15:00.825Z,102602.91
2022-12-18T05:17:31.229Z,102608.52
2022-12-18T05:20:00.550Z,102613.98
2022-12-18T05:22:30.244Z,102620.09
2022-12-18T05:24:59.653Z,102627.20
2022-12-18T05:27:28.341Z,102635.34
2022-12-18T05:29:56.953Z,102640.77
2022-12-18T05:32:25.527Z,102643.31
2022-12-18T05:34:54.482Z,102649.76
2022-12-18T05:37:23.466Z,102654.16
2022-12-18T05:39:52.676Z,102661.65
2022-12-18T05:42:22.427Z,102663.34
2022-12-18T05:44:51.158Z,102672.23
2022-12-18T05:47:20.515Z,102678.20
2022-12-18T05:49:49.719Z,102682.08
2022-12-18T05:52:19.385Z,102681.55
2022-12-18T05:54:48.122Z,102689.38
2022-12-18T05:57:16.864Z,102694.65
2022-12-18T05:59:45.859Z,102692.41
2022-12-18T06:02:14.705Z,102689.50
2022-12-18T06:04:43.596Z,102695.29
2022-12-18T06:07:15.001Z,102704.52
2022-12-18T06:09:44.008Z,102711.52
2022-12-18T06:12:12.977Z,102714.25
2022-12-18T06:14:41.823Z,102714.77
2022-12-18T06:17:10.739Z,102718.38
2022-12-18T06:19:39.607Z,102728.94
2022-12-18T06:22:08.869Z,102725.86
2022-12-18T06:24:37.668Z,102729.08
2022-12-18T06:27:06.564Z,102736.73
2022-12-18T06:29:35.413Z,102739.96
2022-12-18T06:32:04.738Z,102743.34
2022-12-18T06:34:37.047Z,102745.16
2022-12-18T06:37:08.868Z,102752.11
2022-12-18T06:39:37.545Z,102758.70
2022-12-18T06:42:07.031Z,102763.94
2022-12-18T06:44:36.445Z,102766.99
2022-12-18T06:47:06.204Z,102771.41
2022-12-18T06:49:37.416Z,102780.44
2022-12-18T06:52:10.013Z,102792.20
2022-12-18T06:54:38.898Z,102796.63
2022-12-18T06:57:07.693Z,102801.40
2022-12-18T06:59:38.014Z,102801.77
2022-12-18T07:02:07.294Z,102798.52
2022-12-18T07:04:39.082Z,102805.54
2022-12-18T07:07:08.036Z,102804.57
2022-12-18T07:09:37.144Z,102797.45
2022-12-18T07:12:06.437Z,102797.52
2022-12-18T07:14:35.531Z,102799.45
2022-12-18T07:17:04.406Z,102805.27
2022-12-18T07:19:35.832Z,102816.21
2022-12-18T07:22:04.776Z,102822.18
2022-12-18T07:24:35.688Z,102829.17
2022-12-18T07:27:04.656Z,102835.98
2022-12-18T07:29:33.778Z,102831.89
2022-12-18T07:32:03.226Z,102825.07
2022-12-18T07:34:32.417Z,102830.88
2022-12-18T07:37:03.054Z,102831.90
2022-12-18T07:39:31.680Z,102837.36
2022-12-18T07:42:19.182Z,102839.58
2022-12-18T07:44:48.233Z,102842.61
2022-12-18T07:47:17.409Z,102846.00
2022-12-18T07:49:46.378Z,102849.20
2022-12-18T07:52:15.405Z,102854.98
2022-12-18T07:54:47.054Z,102860.92
2022-12-18T07:57:41.798Z,102861.65
2022-12-18T08:00:10.758Z,102864.42
2022-12-18T08:02:44.285Z,102872.45
2022-12-18T08:05:15.520Z,102878.55
2022-12-18T08:07:44.365Z,102881.91
2022-12-18T08:10:13.430Z,102895.84
2022-12-18T08:12:42.281Z,102897.15
2022-12-18T08:15:11.346Z,102899.98
2022-12-18T08:17:40.509Z,102899.20
2022-12-18T08:20:11.033Z,102900.53
2022-12-18T08:22:40.633Z,102910.73
2022-12-18T08:25:10.144Z,102909.54
2022-12-18T08:27:40.350Z,102911.19
2022-12-18T08:30:11.244Z,102908.40
2022-12-18T08:32:40.296Z,102903.71
2022-12-18T08:35:18.629Z,102901.80
2022-12-18T08:38:07.063Z,102912.36
2022-12-18T08:40:36.242Z,102911.34
2022-12-18T08:43:23.873Z,102915.79
2022-12-18T08:45:52.879Z,102915.95
2022-12-18T08:48:32.367Z,102910.95
2022-12-18T08:51:05.581Z,102917.20
2022-12-18T08:53:39.842Z,102921.27
2022-12-18T08:56:10.022Z,102922.33
2022-12-18T08:58:40.850Z,102925.73
2022-12-18T09:01:14.279Z,102928.76
2022-12-18T09:03:51.064Z,102933.87
2022-12-18T09:06:25.647Z,102928.63
2022-12-18T09:08:54.437Z,102929.33
2022-12-18T09:11:27.627Z,102934.27
2022-12-18T09:13:59.304Z,102940.04
2022-12-18T09:16:32.545Z,102931.73
2022-12-18T09:19:07.222Z,102933.80
2022-12-18T09:21:46.145Z,102943.02
2022-12-18T09:24:17.753Z,102935.18
2022-12-18T09:26:57.822Z,102935.02
2022-12-18T09:29:27.626Z,102936.90
2022-12-18T09:31:58.945Z,102937.95
2022-12-18T09:34:28.103Z,102942.74
2022-12-18T09:36:57.885Z,102945.45
2022-12-18T09:39:27.193Z,102946.26
2022-12-18T09:42:00.077Z,102955.95
2022-12-18T09:44:45.951Z,102965.21
2022-12-18T09:47:25.976Z,102970.88
2022-12-18T09:50:09.597Z,102972.65
2022-12-18T09:52:48.422Z,102968.80
2022-12-18T09:55:44.652Z,102971.37
2022-12-18T09:58:44.138Z,102975.33
2022-12-18T10:01:55.933Z,102988.36
2022-12-18T10:04:33.734Z,102994.20
2022-12-18T10:07:49.528Z,103005.09
2022-12-18T10:10:54.017Z,103009.71
2022-12-18T10:13:53.182Z,103001.54
2022-12-18T10:16:42.864Z,102990.78
2022-12-18T10:19:39.223Z,102992.67
2022-12-18T10:22:14.354Z,103002.89
2022-12-18T10:25:07.013Z,103006.64
2022-12-18T10:27:36.209Z,103017.55
2022-12-18T10:30:31.204Z,103021.10
2022-12-18T10:33:30.672Z,103034.94
2022-12-18T10:36:17.665Z,103037.73
2022-12-18T10:39:28.515Z,103036.11
2022-12-18T10:42:18.467Z,103047.92
2022-12-18T10:51:37.375Z,103053.77
2022-12-18T10:54:29.260Z,103065.87
2022-12-18T10:57:39.178Z,103048.52
2022-12-18T11:00:32.311Z,103050.57
2022-12-18T11:03:01.712Z,103056.70
2022-12-18T11:05:35.472Z,103056.70
2022-12-18T11:08:11.070Z,103062.66
2022-12-18T11:10:42.166Z,103060.15
2022-12-18T11:13:19.125Z,103047.10
2022-12-18T11:15:51.935Z,103068.55
2022-12-18T11:18:41.187Z,103058.66
2022-12-18T11:21:14.146Z,103070.27
2022-12-18T11:27:31.074Z,103071.06
2022-12-18T11:30:44.720Z,103076.67
2022-12-18T11:33:23.214Z,103074.98
2022-12-18T11:36:01.535Z,103074.82
2022-12-18T11:38:36.484Z,103083.34
2022-12-18T11:41:50.536Z,103089.81
2022-12-18T11:44:40.244Z,103094.08
2022-12-18T11:47:43.221Z,103094.75
2022-12-18T11:50:52.646Z,103099.00
2022-12-18T11:53:23.104Z,103105.52
2022-12-18T11:56:15.283Z,103107.44
2022-12-18T11:58:44.808Z,103101.52
2022-12-18T12:01:43.355Z,103104.76
2022-12-18T12:04:58.223Z,103107.33
2022-12-18T12:07:48.299Z,103114.15
2022-12-18T12:10:47.911Z,103121.83
2022-12-18T12:14:31.305Z,103118.77
2022-12-18T12:17:38.388Z,103117.42
2022-12-18T12:20:19.871Z,103120.63
2022-12-18T12:23:27.446Z,103127.10
2022-12-18T12:26:10.898Z,103136.45
2022-12-18T12:29:02.061Z,103126.08
2022-12-18T12:31:53.222Z,103126.60
2022-12-18T12:34:28.128Z,103130.68
2022-12-18T12:37:51.514Z,103137.15
2022-12-18T12:40:53.830Z,103151.30
2022-12-18T12:43:51.615Z,103137.04
2022-12-18T12:46:34.910Z,103149.83
2022-12-18T12:49:15.828Z,103158.35
2022-12-18T12:52:15.173Z,103157.34
2022-12-18T12:54:45.757Z,103153.77
2022-12-18T12:57:32.819Z,103160.43
2022-12-18T13:00:20.336Z,103160.27
2022-12-18T13:02:56.147Z,103163.70
2022-12-18T13:05:52.248Z,103163.85
2022-12-18T13:08:34.983Z,103166.41
2022-12-18T13:11:59.359Z,103177.83
2022-12-18T13:14:41.545Z,103189.45
2022-12-18T13:17:30.541Z,103186.90
2022-12-18T13:20:20.049Z,103195.80
2022-12-18T13:22:53.264Z,103190.52
2022-12-18T13:25:41.207Z,103193.25
2022-12-18T13:28:16.138Z,103192.05
2022-12-18T13:30:57.857Z,103196.31
2022-12-18T13:34:23.844Z,103201.42
2022-12-18T13:36:38.251Z,103206.72
2022-12-18T13:39:26.662Z,103211.34
2022-12-18T13:42:08.040Z,103213.41
2022-12-18T13:44:42.371Z,103212.05
2022-12-18T13:47:39.141Z,103217.00
2022-12-18T13:50:24.487Z,103224.16
2022-12-18T13:52:55.595Z,103230.30
2022-12-18T13:55:26.074Z,103236.42
2022-12-18T13:58:06.331Z,103235.08
2022-12-18T14:00:36.236Z,103238.31
2022-12-18T14:03:29.559Z,103241.90
2022-12-18T14:06:18.826Z,103238.34
2022-12-18T14:09:00.834Z,103233.39
2022-12-18T14:11:31.191Z,103234.07
2022-12-18T14:14:01.296Z,103236.30
2022-12-18T14:16:39.045Z,103238.85
2022-12-18T14:19:17.070Z,103247.04
2022-12-18T14:21:48.886Z,103249.77
2022-12-18T14:24:23.388Z,103251.65
2022-12-18T14:26:53.021Z,103253.52
2022-12-18T14:29:32.684Z,103261.20
2022-12-18T14:32:19.804Z,103262.75
2022-12-18T14:38:30.523Z,103271.93
2022-12-18T14:41:08.621Z,103275.34
2022-12-18T14:43:41.596Z,103279.09
2022-12-18T14:46:39.518Z,103276.02
2022-12-18T14:49:35.365Z,103280.45
2022-12-18T14:52:24.328Z,103282.50
2022-12-18T14:54:58.742Z,103274.84
2022-12-18T14:57:39.040Z,103283.52
2022-12-18T15:00:20.502Z,103289.33
2022-12-18T15:02:57.657Z,103294.27
2022-12-18T15:05:46.601Z,103292.75
2022-12-18T15:08:53.081Z,103309.77
2022-12-18T15:12:01.815Z,103307.91
2022-12-18T15:14:43.147Z,103309.45
2022-12-18T15:17:26.097Z,103313.88
2022-12-18T15:20:09.187Z,103321.88
2022-12-18T15:22:39.407Z,103326.14
2022-12-18T15:25:34.310Z,103330.08
2022-12-18T15:28:05.562Z,103338.08
2022-12-18T15:30:38.198Z,103341.83
2022-12-18T15:33:33.276Z,103338.77
2022-12-18T15:36:06.881Z,103340.80
2022-12-18T15:38:35.982Z,103339.09
2022-12-18T15:41:11.549Z,103337.39
2022-12-18T15:43:43.816Z,103336.04
2022-12-18T15:46:17.492Z,103348.98
2022-12-18T15:48:52.814Z,103352.21
2022-12-18T15:51:39.674Z,103358.17
2022-12-18T15:54:17.854Z,103356.31
2022-12-18T15:57:16.394Z,103357.31
2022-12-18T15:59:45.875Z,103360.89
2022-12-18T16:02:28.247Z,103366.52
2022-12-18T16:05:04.047Z,103377.58
2022-12-18T16:07:36.911Z,103379.46
2022-12-18T16:10:10.476Z,103381.66
2022-12-18T16:12:44.587Z,103388.14
2022-12-18T16:15:21.080Z,103391.53
2022-12-18T16:17:53.371Z,103398.01
2022-12-18T16:20:27.559Z,103402.77
2022-12-18T16:23:01.230Z,103412.45
2022-12-18T16:25:32.880Z,103416.54
2022-12-18T16:28:02.214Z,103418.75
2022-12-18T16:30:36.236Z,103409.54
2022-12-18T16:33:14.720Z,103414.80
2022-12-18T16:35:43.914Z,103418.89
2022-12-18T16:38:13.547Z,103419.05
2022-12-18T16:41:02.817Z,103426.03
2022-12-18T16:43:33.158Z,103426.87
2022-12-18T16:46:04.528Z,103432.65
2022-12-18T16:48:47.327Z,103436.05
2022-12-18T16:51:16.804Z,103439.79
2022-12-18T16:53:46.522Z,103438.77
2022-12-18T16:56:16.001Z,103437.54
2022-12-18T16:58:45.324Z,103438.21
2022-12-18T17:01:14.525Z,103444.33
2022-12-18T17:03:43.684Z,103446.19
2022-12-18T17:06:17.639Z,103448.55
2022-12-18T17:08:48.755Z,103459.27
2022-12-18T17:14:48.531Z,103468.62
2022-12-18T17:17:25.864Z,103468.61
2022-12-18T17:19:55.001Z,103470.98
2022-12-18T17:22:28.282Z,103481.19
2022-12-18T17:24:57.905Z,103484.95
2022-12-18T17:27:31.022Z,103488.01
2022-12-18T17:30:00.744Z,103490.41
2022-12-18T17:32:31.132Z,103490.08
2022-12-18T17:35:06.966Z,103493.47
2022-12-18T17:37:38.006Z,103498.06
2022-12-18T17:40:09.844Z,103498.26
2022-12-18T17:42:40.443Z,103496.05
2022-12-18T17:45:14.279Z,103490.11
2022-12-18T17:47:54.215Z,103488.58
2022-12-18T17:50:26.047Z,103500.50
2022-12-18T17:53:08.004Z,103480.71
2022-12-18T17:55:38.115Z,103496.93
2022-12-18T17:58:09.543Z,103502.58
2022-12-18T18:01:13.636Z,103510.05
2022-12-18T18:14:41.662Z,103530.63
2022-12-18T18:17:23.117Z,103532.48
2022-12-18T18:19:53.549Z,103539.27
2022-12-18T18:22:30.325Z,103536.70
2022-12-18T18:25:03.415Z,103539.05
2022-12-18T18:27:38.713Z,103543.28
2022-12-18T18:43:56.668Z,103546.77
2022-12-18T18:46:29.068Z,103554.56
2022-12-18T18:49:01.313Z,103554.86
2022-12-18T18:51:34.597Z,103557.71
2022-12-18T18:54:03.259Z,103566.89
2022-12-18T18:59:31.209Z,103573.82
2022-12-18T19:02:04.633Z,103568.00
2022-12-18T19:04:46.542Z,103570.71
2022-12-18T19:07:25.378Z,103571.22
2022-12-18T19:10:05.384Z,103569.86
2022-12-18T19:12:56.726Z,103572.08
2022-12-18T19:15:25.132Z,103573.27
2022-12-18T19:17:55.678Z,103576.33
2022-12-18T19:20:24.011Z,103576.67
2022-12-18T19:22:55.749Z,103572.92
2022-12-18T19:25:38.089Z,103584.47
2022-12-18T19:28:16.021Z,103585.84
2022-12-18T19:30:58.791Z,103582.61
2022-12-18T19:33:45.894Z,103592.32
2022-12-18T19:36:25.858Z,103593.02
2022-12-18T19:38:56.915Z,103599.67
2022-12-18T19:41:29.093Z,103603.41
2022-12-18T19:43:59.670Z,103598.30
2022-12-18T19:46:31.179Z,103604.27
2022-12-18T19:49:00.810Z,103611.75
2022-12-18T19:51:29.783Z,103619.41
2022-12-18T19:54:01.249Z,103619.23
2022-12-18T19:56:34.499Z,103623.52
2022-12-18T19:59:04.383Z,103624.55
2022-12-18T20:01:32.572Z,103630.86
2022-12-18T20:04:03.052Z,103639.71
2022-12-18T20:06:53.849Z,103647.21
2022-12-18T20:09:26.314Z,103646.02
2022-12-18T20:12:02.676Z,103656.23
2022-12-18T20:14:30.524Z,103662.89
2022-12-18T20:17:01.844Z,103672.42
2022-12-18T20:19:32.092Z,103665.79
2022-12-18T20:22:02.736Z,103670.20
2022-12-18T20:24:31.761Z,103678.03
2022-12-18T20:26:59.361Z,103677.15
2022-12-18T20:29:27.337Z,103679.52
2022-12-18T20:31:55.597Z,103680.52
2022-12-18T20:34:24.235Z,103688.50
2022-12-18T20:36:54.522Z,103681.69
2022-12-18T20:39:28.249Z,103684.03
2022-12-18T20:41:59.712Z,103683.86
2022-12-18T20:44:27.474Z,103686.60
2022-12-18T20:47:00.089Z,103691.20
2022-12-18T20:49:33.945Z,103693.55
2022-12-18T20:52:02.995Z,103692.49
2022-12-18T20:54:31.111Z,103697.25
2022-12-18T20:56:58.869Z,103696.55
2022-12-18T20:59:26.656Z,103701.63
2022-12-18T21:01:55.073Z,103705.19
2022-12-18T21:04:23.416Z,103700.93
2022-12-18T21:06:55.583Z,103700.77
2022-12-18T21:09:37.538Z,103705.36
2022-12-18T21:12:32.501Z,103707.90
2022-12-18T21:15:05.059Z,103703.77
2022-12-18T21:17:37.498Z,103705.41
2022-12-18T21:20:19.472Z,103700.64
2022-12-18T21:22:49.095Z,103700.09
2022-12-18T21:25:17.530Z,103696.86
2022-12-18T21:27:47.694Z,103698.55
2022-12-18T21:30:18.304Z,103698.19
2022-12-18T21:32:46.954Z,103697.83
2022-12-18T21:35:15.086Z,103697.45
2022-12-18T21:37:46.306Z,103698.61
2022-12-18T21:40:15.450Z,103701.29
2022-12-18T21:43:01.730Z,103701.63
2022-12-18T21:45:29.161Z,103703.14
2022-12-18T21:47:57.301Z,103705.31
2022-12-18T21:50:25.568Z,103706.98
2022-12-18T22:03:42.040Z,103723.77
2022-12-18T22:06:16.003Z,103730.84
2022-12-18T22:11:48.223Z,103732.45
2022-12-18T22:14:17.891Z,103736.11
2022-12-18T22:16:48.544Z,103732.84
2022-12-18T22:19:20.012Z,103737.73
2022-12-18T22:21:49.930Z,103736.43
2022-12-18T22:24:20.007Z,103734.98
2022-12-18T22:26:51.718Z,103731.18
2022-12-18T22:29:43.118Z,103734.90
2022-12-18T22:32:20.397Z,103734.70
2022-12-18T22:35:06.837Z,103733.48
2022-12-18T22:37:38.374Z,103736.06
2022-12-18T22:40:07.909Z,103737.10
2022-12-18T22:42:37.702Z,103738.95
2022-12-18T22:45:07.238Z,103740.64
2022-12-18T22:47:35.958Z,103739.03
2022-12-18T22:50:05.058Z,103740.36
2022-12-18T22:52:34.232Z,103743.58
2022-12-18T22:55:03.220Z,103749.88
2022-12-18T22:57:34.553Z,103748.45
2022-12-18T23:00:06.442Z,103746.52
2022-12-18T23:02:36.334Z,103744.95
2022-12-18T23:05:08.712Z,103742.84
2022-12-18T23:07:37.537Z,103748.57
2022-12-18T23:10:06.849Z,103750.59
2022-12-18T23:12:37.857Z,103748.17
2022-12-18T23:15:07.767Z,103745.91
2022-12-18T23:17:36.984Z,103754.52
2022-12-18T23:20:06.583Z,103762.04
2022-12-18T23:22:49.122Z,103761.73
2022-12-18T23:25:20.754Z,103767.00
2022-12-18T23:27:49.849Z,103774.83
2022-12-18T23:30:19.180Z,103776.70
2022-12-18T23:32:48.438Z,103771.19
2022-12-18T23:35:17.882Z,103774.44
2022-12-18T23:38:03.927Z,103774.59
2022-12-18T23:40:33.467Z,103775.81
2022-12-18T23:43:02.429Z,103784.35
2022-12-18T23:45:31.326Z,103784.75
2022-12-18T23:48:00.032Z,103781.68
2022-12-18T23:50:30.152Z,103789.16
2022-12-18T23:53:04.797Z,103787.63
2022-12-18T23:55:40.706Z,103791.04
2022-12-18T23:58:20.726Z,103799.02
